Time;durP1;ratioP1;P1;durP2;ratioP2;P2;SDS_P1;SDS_P2;PMS_P1;PMS_P2;Temp;Humidity;BMP_temperature;BMP_pressure;BME280_temperature;BME280_humidity;BME280_pressure;Samples;Min_cycle;Max_cycle;Signal;HPM_P1;HPM_P2
2023/08/01 00:02:11;;;;;;;7.43;4.72;;;;;;;;;;5114760;28;20051;-86
2023/08/01 00:04:37;;;;;;;7.18;4.88;;;;;;;;;;5114929;28;20047;-86
2023/08/01 00:07:03;;;;;;;6.90;4.65;;;;;;;;;;5115209;28;20431;-86
2023/08/01 00:09:29;;;;;;;6.88;4.65;;;;;;;;;;5099135;28;20055;-87
2023/08/01 00:11:55;;;;;;;6.40;5.18;;;;;;;;;;5118021;28;20050;-87
2023/08/01 00:14:24;;;;;;;6.15;5.07;;;;;;;;;;5116905;28;20083;-87
2023/08/01 00:16:50;;;;;;;6.03;4.93;;;;;;;;;;5097677;28;20070;-87
2023/08/01 00:19:16;;;;;;;6.63;4.38;;;;;;;;;;5096736;28;20051;-87
2023/08/01 00:21:42;;;;;;;5.20;4.70;;;;;;;;;;5114060;28;20043;-88
2023/08/01 00:24:08;;;;;;;6.15;4.50;;;;;;;;;;5098195;28;20058;-88
2023/08/01 00:26:35;;;;;;;6.45;4.03;;;;;;;;;;5116154;28;20048;-86
2023/08/01 00:29:01;;;;;;;5.05;3.85;;;;;;;;;;5099276;28;20051;-87
2023/08/01 00:31:27;;;;;;;4.53;4.00;;;;;;;;;;5115819;28;20047;-86
2023/08/01 00:33:53;;;;;;;4.80;4.40;;;;;;;;;;5098972;28;20044;-87
2023/08/01 00:36:19;;;;;;;5.30;4.38;;;;;;;;;;5115591;28;20059;-87
2023/08/01 00:38:46;;;;;;;6.25;4.57;;;;;;;;;;5114565;28;20051;-87
2023/08/01 00:41:13;;;;;;;4.05;3.67;;;;;;;;;;5114670;28;20081;-87
2023/08/01 00:43:39;;;;;;;5.18;3.50;;;;;;;;;;5097433;28;20044;-89
2023/08/01 00:46:06;;;;;;;4.40;3.78;;;;;;;;;;5080614;28;20047;-88
2023/08/01 00:48:32;;;;;;;6.10;4.35;;;;;;;;;;5113943;28;20036;-88
2023/08/01 00:51:00;;;;;;;5.13;4.45;;;;;;;;;;5114333;28;20048;-88
2023/08/01 00:53:26;;;;;;;6.28;4.60;;;;;;;;;;5097516;28;20104;-88
2023/08/01 00:55:56;;;;;;;6.63;3.80;;;;;;;;;;5080611;28;20047;-87
2023/08/01 00:58:22;;;;;;;5.70;4.63;;;;;;;;;;5114169;28;20461;-88
2023/08/01 01:00:48;;;;;;;6.22;4.07;;;;;;;;;;5114456;28;20044;-89
2023/08/01 01:03:14;;;;;;;9.32;4.90;;;;;;;;;;5114315;28;20054;-88
2023/08/01 01:05:43;;;;;;;5.07;4.65;;;;;;;;;;5096695;28;20051;-88
2023/08/01 01:08:09;;;;;;;5.25;4.50;;;;;;;;;;5113876;28;20047;-88
2023/08/01 01:10:35;;;;;;;7.63;4.95;;;;;;;;;;5115384;28;20093;-88
2023/08/01 01:13:02;;;;;;;5.53;4.78;;;;;;;;;;5117867;28;20060;-88
2023/08/01 01:15:28;;;;;;;5.95;5.05;;;;;;;;;;5101393;28;20044;-88
2023/08/01 01:17:54;;;;;;;5.65;5.15;;;;;;;;;;5101385;28;20134;-88
2023/08/01 01:20:21;;;;;;;7.00;5.22;;;;;;;;;;5100654;28;20081;-88
2023/08/01 01:22:48;;;;;;;6.55;4.72;;;;;;;;;;5117833;28;20497;-88
2023/08/01 01:25:15;;;;;;;6.85;4.38;;;;;;;;;;5101572;28;20051;-88
2023/08/01 01:27:41;;;;;;;7.43;5.50;;;;;;;;;;5117163;28;20100;-88
2023/08/01 01:30:07;;;;;;;7.72;6.38;;;;;;;;;;5117671;28;20067;-88
2023/08/01 01:32:34;;;;;;;7.05;6.40;;;;;;;;;;5117392;28;20047;-87
2023/08/01 01:35:01;;;;;;;12.15;6.82;;;;;;;;;;5100672;28;20051;-87
2023/08/01 01:37:27;;;;;;;11.27;7.55;;;;;;;;;;5117065;28;20058;-87
2023/08/01 01:39:53;;;;;;;9.05;7.07;;;;;;;;;;5100615;28;20083;-87
2023/08/01 01:42:19;;;;;;;9.55;7.10;;;;;;;;;;5100474;28;20477;-87
2023/08/01 01:44:45;;;;;;;10.38;7.45;;;;;;;;;;5118363;28;20047;-87
2023/08/01 01:47:11;;;;;;;8.93;6.60;;;;;;;;;;5100097;28;20051;-87
2023/08/01 01:49:38;;;;;;;9.02;7.40;;;;;;;;;;5101213;28;20048;-87
2023/08/01 01:52:04;;;;;;;9.57;8.30;;;;;;;;;;5117518;28;20054;-87
2023/08/01 01:54:30;;;;;;;8.63;7.82;;;;;;;;;;5117290;28;20078;-87
2023/08/01 01:56:56;;;;;;;10.25;6.78;;;;;;;;;;5117264;28;20047;-86
2023/08/01 01:59:22;;;;;;;9.23;6.88;;;;;;;;;;5118150;28;20185;-88
2023/08/01 02:01:48;;;;;;;7.50;6.60;;;;;;;;;;5117443;28;20481;-87
2023/08/01 02:04:14;;;;;;;11.23;7.20;;;;;;;;;;5118200;28;20070;-87
2023/08/01 02:06:40;;;;;;;9.32;6.80;;;;;;;;;;5117780;28;20047;-87
2023/08/01 02:09:07;;;;;;;7.90;7.10;;;;;;;;;;5116604;28;20447;-87
2023/08/01 02:11:33;;;;;;;7.82;6.38;;;;;;;;;;5116680;28;20056;-87
2023/08/01 02:13:59;;;;;;;7.82;6.65;;;;;;;;;;5117517;28;20039;-86
2023/08/01 02:16:25;;;;;;;10.02;6.47;;;;;;;;;;5099951;28;20050;-86
2023/08/01 02:18:51;;;;;;;9.07;5.88;;;;;;;;;;5117592;28;20035;-86
2023/08/01 02:21:17;;;;;;;10.15;6.22;;;;;;;;;;5117181;28;20048;-86
2023/08/01 02:23:43;;;;;;;8.18;5.78;;;;;;;;;;5116638;28;20489;-86
2023/08/01 02:26:09;;;;;;;6.95;5.45;;;;;;;;;;5117015;28;20047;-86
2023/08/01 02:28:35;;;;;;;5.72;5.20;;;;;;;;;;5100258;28;20106;-86
2023/08/01 02:31:01;;;;;;;9.05;5.57;;;;;;;;;;5100045;28;20051;-86
2023/08/01 02:33:27;;;;;;;7.85;5.30;;;;;;;;;;5099583;28;20056;-86
2023/08/01 02:35:53;;;;;;;6.13;5.43;;;;;;;;;;5116355;28;20473;-86
2023/08/01 02:38:19;;;;;;;5.97;4.93;;;;;;;;;;5117510;28;20061;-86
2023/08/01 02:40:45;;;;;;;7.75;4.90;;;;;;;;;;5098893;28;20058;-86
2023/08/01 02:43:11;;;;;;;8.00;4.93;;;;;;;;;;5116172;28;20480;-86
2023/08/01 02:45:38;;;;;;;13.70;5.32;;;;;;;;;;5116829;28;20062;-86
2023/08/01 02:48:04;;;;;;;9.52;4.70;;;;;;;;;;5116969;28;20039;-86
2023/08/01 02:50:30;;;;;;;5.10;4.63;;;;;;;;;;5099949;28;20056;-86
2023/08/01 02:52:56;;;;;;;10.85;4.75;;;;;;;;;;5098878;28;20058;-87
2023/08/01 02:55:22;;;;;;;10.68;5.25;;;;;;;;;;5117082;28;20069;-86
2023/08/01 02:57:48;;;;;;;9.30;4.22;;;;;;;;;;5098837;28;20079;-86
2023/08/01 03:00:14;;;;;;;9.52;4.53;;;;;;;;;;5116719;28;20043;-86
2023/08/01 03:02:40;;;;;;;7.70;3.85;;;;;;;;;;5099053;28;20059;-86
2023/08/01 03:05:07;;;;;;;6.13;3.92;;;;;;;;;;5116013;28;20112;-86
2023/08/01 03:07:33;;;;;;;7.05;4.07;;;;;;;;;;5115751;28;20043;-86
2023/08/01 03:09:59;;;;;;;7.82;3.70;;;;;;;;;;5116561;28;20052;-87
2023/08/01 03:12:26;;;;;;;5.88;3.50;;;;;;;;;;5115785;28;20142;-87
2023/08/01 03:14:52;;;;;;;6.18;3.40;;;;;;;;;;5115681;28;20049;-86
2023/08/01 03:17:18;;;;;;;10.05;3.55;;;;;;;;;;5115500;28;20043;-86
2023/08/01 03:19:44;;;;;;;7.90;3.47;;;;;;;;;;5115430;28;20044;-86
2023/08/01 03:22:10;;;;;;;8.15;3.72;;;;;;;;;;5116602;28;20104;-86
2023/08/01 03:24:36;;;;;;;8.82;4.10;;;;;;;;;;5115347;28;20516;-86
2023/08/01 03:27:03;;;;;;;7.40;3.70;;;;;;;;;;5098623;28;20050;-86
2023/08/01 03:29:29;;;;;;;11.45;4.15;;;;;;;;;;5115375;28;20379;-87
2023/08/01 03:31:55;;;;;;;8.50;3.58;;;;;;;;;;5116063;28;20051;-86
2023/08/01 03:34:21;;;;;;;7.30;3.55;;;;;;;;;;5115727;28;20094;-86
2023/08/01 03:36:47;;;;;;;7.95;3.22;;;;;;;;;;5097328;28;20059;-86
2023/08/01 03:39:13;;;;;;;5.40;3.20;;;;;;;;;;5115007;28;20461;-86
2023/08/01 03:41:39;;;;;;;10.55;3.50;;;;;;;;;;5115075;28;20048;-86
2023/08/01 03:44:05;;;;;;;9.82;3.67;;;;;;;;;;5098245;28;20050;-86
2023/08/01 03:46:32;;;;;;;9.07;3.80;;;;;;;;;;5115123;28;20047;-87
2023/08/01 03:48:58;;;;;;;9.55;4.43;;;;;;;;;;5115748;28;20130;-86
2023/08/01 03:51:24;;;;;;;6.82;3.85;;;;;;;;;;5116004;28;20051;-86
2023/08/01 03:53:50;;;;;;;12.82;3.85;;;;;;;;;;5115182;28;20047;-86
2023/08/01 03:56:16;;;;;;;6.07;3.88;;;;;;;;;;5115769;28;20130;-86
2023/08/01 03:58:42;;;;;;;11.07;4.03;;;;;;;;;;5115167;28;20477;-86
2023/08/01 04:01:08;;;;;;;9.00;3.80;;;;;;;;;;5097729;28;20122;-86
2023/08/01 04:03:34;;;;;;;6.30;3.88;;;;;;;;;;5116279;28;20116;-86
2023/08/01 04:06:00;;;;;;;11.38;4.65;;;;;;;;;;5098013;28;20056;-86
2023/08/01 04:08:26;;;;;;;8.45;4.07;;;;;;;;;;5114514;28;20048;-87
2023/08/01 04:10:52;;;;;;;9.68;4.78;;;;;;;;;;5116147;28;20134;-87
2023/08/01 04:13:19;;;;;;;10.63;4.20;;;;;;;;;;5114789;28;20055;-87
2023/08/01 04:15:45;;;;;;;10.45;4.45;;;;;;;;;;5114548;28;20043;-82
2023/08/01 04:18:11;;;;;;;6.25;4.75;;;;;;;;;;5113199;28;20054;-82
2023/08/01 04:20:37;;;;;;;7.18;3.88;;;;;;;;;;5115183;28;20043;-83
2023/08/01 04:23:03;;;;;;;5.70;4.00;;;;;;;;;;5114988;28;20051;-82
2023/08/01 04:25:29;;;;;;;4.03;3.38;;;;;;;;;;5097551;28;20370;-83
2023/08/01 04:27:55;;;;;;;6.43;3.80;;;;;;;;;;5115440;28;20140;-83
2023/08/01 04:30:21;;;;;;;5.53;4.03;;;;;;;;;;5114623;28;20051;-84
2023/08/01 04:32:47;;;;;;;7.38;3.35;;;;;;;;;;5114002;28;20052;-83
2023/08/01 04:35:13;;;;;;;6.80;3.90;;;;;;;;;;5115703;28;20069;-84
2023/08/01 04:37:39;;;;;;;5.03;3.33;;;;;;;;;;5096989;28;20052;-84
2023/08/01 04:40:06;;;;;;;4.30;3.13;;;;;;;;;;5113841;28;20040;-87
2023/08/01 04:42:32;;;;;;;3.65;2.20;;;;;;;;;;5097727;28;20082;-87
2023/08/01 04:44:58;;;;;;;2.45;1.60;;;;;;;;;;5097780;28;20047;-87
2023/08/01 04:47:24;;;;;;;3.33;1.60;;;;;;;;;;5119115;28;20086;-88
2023/08/01 04:49:50;;;;;;;2.45;0.98;;;;;;;;;;5119864;28;20044;-88
2023/08/01 04:52:16;;;;;;;2.92;0.95;;;;;;;;;;5101610;28;20459;-87
2023/08/01 04:54:42;;;;;;;2.08;0.80;;;;;;;;;;5118167;28;20083;-88
2023/08/01 04:57:08;;;;;;;3.30;1.33;;;;;;;;;;5117860;28;20481;-86
2023/08/01 04:59:34;;;;;;;1.92;0.77;;;;;;;;;;5119446;28;20102;-88
2023/08/01 05:02:00;;;;;;;1.10;0.70;;;;;;;;;;5101095;28;20090;-88
2023/08/01 05:04:26;;;;;;;3.83;1.50;;;;;;;;;;5118416;28;20082;-88
2023/08/01 05:06:52;;;;;;;2.55;1.08;;;;;;;;;;5101832;28;20043;-89
2023/08/01 05:09:18;;;;;;;1.80;1.00;;;;;;;;;;5118653;28;20138;-89
2023/08/01 05:11:45;;;;;;;2.25;1.50;;;;;;;;;;5119416;28;20546;-89
2023/08/01 05:14:11;;;;;;;4.35;1.30;;;;;;;;;;5118158;28;20058;-88
2023/08/01 05:16:37;;;;;;;2.10;0.98;;;;;;;;;;5118478;28;20048;-89
2023/08/01 05:19:03;;;;;;;1.95;1.23;;;;;;;;;;5101312;28;20044;-88
2023/08/01 05:21:29;;;;;;;3.83;1.25;;;;;;;;;;5118054;28;20039;-88
2023/08/01 05:23:55;;;;;;;2.63;1.20;;;;;;;;;;5101286;28;20408;-88
2023/08/01 05:26:21;;;;;;;2.33;0.95;;;;;;;;;;5118999;28;20481;-88
2023/08/01 05:28:47;;;;;;;3.15;1.20;;;;;;;;;;5118368;28;20040;-87
2023/08/01 05:31:13;;;;;;;2.65;0.77;;;;;;;;;;5118722;28;20048;-87
2023/08/01 05:33:39;;;;;;;2.97;0.88;;;;;;;;;;5119266;28;20485;-88
2023/08/01 05:36:06;;;;;;;3.08;1.10;;;;;;;;;;5121052;28;20060;-87
2023/08/01 05:38:32;;;;;;;3.75;1.23;;;;;;;;;;5104581;28;20052;-88
2023/08/01 05:40:58;;;;;;;4.18;1.23;;;;;;;;;;5124364;28;20481;-87
2023/08/01 05:43:24;;;;;;;3.22;1.17;;;;;;;;;;5121131;28;20092;-88
2023/08/01 05:45:50;;;;;;;4.95;1.45;;;;;;;;;;5118136;28;20055;-84
2023/08/01 05:48:16;;;;;;;6.70;1.27;;;;;;;;;;5117176;28;20046;-82
2023/08/01 05:50:42;;;;;;;4.10;1.17;;;;;;;;;;5116296;28;20092;-84
2023/08/01 05:53:08;;;;;;;1.95;0.60;;;;;;;;;;5116070;28;20500;-83
2023/08/01 05:55:34;;;;;;;3.75;1.45;;;;;;;;;;5117572;28;20529;-83
2023/08/01 05:58:00;;;;;;;2.63;0.80;;;;;;;;;;5117061;28;20546;-85
2023/08/01 06:00:27;;;;;;;2.63;1.00;;;;;;;;;;5117066;28;20043;-85
2023/08/01 06:02:53;;;;;;;6.13;1.20;;;;;;;;;;5116004;28;20548;-83
2023/08/01 06:05:19;;;;;;;4.57;0.80;;;;;;;;;;5116803;28;20039;-81
2023/08/01 06:07:45;;;;;;;4.22;1.00;;;;;;;;;;5115884;28;20387;-81
2023/08/01 06:10:11;;;;;;;2.60;0.60;;;;;;;;;;5116730;28;20104;-80
2023/08/01 06:12:37;;;;;;;4.25;0.85;;;;;;;;;;5115404;28;20079;-81
2023/08/01 06:15:04;;;;;;;2.60;0.95;;;;;;;;;;5116312;28;20466;-81
2023/08/01 06:17:30;;;;;;;3.22;0.88;;;;;;;;;;5115508;28;20138;-81
2023/08/01 06:19:56;;;;;;;3.72;1.45;;;;;;;;;;5115215;28;20044;-80
2023/08/01 06:22:22;;;;;;;3.80;1.58;;;;;;;;;;5116466;28;20058;-80
2023/08/01 06:24:49;;;;;;;3.88;1.55;;;;;;;;;;5116481;28;20495;-80
2023/08/01 06:27:15;;;;;;;3.55;1.90;;;;;;;;;;5098483;28;20052;-81
2023/08/01 06:29:41;;;;;;;4.50;2.13;;;;;;;;;;5116120;28;20103;-86
2023/08/01 06:32:07;;;;;;;5.03;2.42;;;;;;;;;;5115655;28;20047;-84
2023/08/01 06:34:33;;;;;;;4.82;2.47;;;;;;;;;;5115203;28;20051;-82
2023/08/01 06:36:59;;;;;;;6.05;2.88;;;;;;;;;;5115444;28;20074;-85
2023/08/01 06:39:25;;;;;;;5.60;2.92;;;;;;;;;;5115936;28;20049;-86
2023/08/01 06:41:51;;;;;;;4.03;2.20;;;;;;;;;;5115919;28;20043;-85
2023/08/01 06:44:17;;;;;;;3.58;1.20;;;;;;;;;;5098756;28;20063;-85
2023/08/01 06:46:43;;;;;;;1.63;1.00;;;;;;;;;;5115671;28;20039;-86
2023/08/01 06:49:10;;;;;;;2.28;0.90;;;;;;;;;;5116960;28;20047;-85
2023/08/01 06:51:36;;;;;;;1.60;0.50;;;;;;;;;;5116215;28;20052;-85
2023/08/01 06:54:02;;;;;;;3.72;0.57;;;;;;;;;;5115825;28;20532;-87
2023/08/01 06:56:28;;;;;;;1.45;0.50;;;;;;;;;;5099540;28;20039;-85
2023/08/01 06:58:54;;;;;;;1.58;0.90;;;;;;;;;;5115659;28;20046;-85
2023/08/01 07:01:20;;;;;;;1.30;0.73;;;;;;;;;;5116917;28;20492;-86
2023/08/01 07:03:46;;;;;;;1.90;1.13;;;;;;;;;;5084628;28;20150;-87
2023/08/01 07:06:12;;;;;;;1.77;0.85;;;;;;;;;;5102230;28;20378;-87
2023/08/01 07:08:38;;;;;;;2.75;1.15;;;;;;;;;;5115082;28;20043;-87
2023/08/01 07:11:04;;;;;;;2.90;1.02;;;;;;;;;;5117308;28;20075;-87
2023/08/01 07:13:30;;;;;;;4.65;1.13;;;;;;;;;;5084733;28;20050;-87
2023/08/01 07:15:56;;;;;;;3.42;1.10;;;;;;;;;;5082273;28;20544;-88
2023/08/01 07:18:22;;;;;;;1.52;1.15;;;;;;;;;;5117607;28;20047;-88
2023/08/01 07:20:49;;;;;;;1.85;0.88;;;;;;;;;;5119790;28;20044;-88
2023/08/01 07:23:15;;;;;;;4.40;1.17;;;;;;;;;;5115976;28;20382;-87
2023/08/01 07:25:41;;;;;;;1.92;0.98;;;;;;;;;;5117170;28;20049;-88
2023/08/01 07:28:07;;;;;;;1.05;0.50;;;;;;;;;;5099066;28;20047;-87
2023/08/01 07:30:33;;;;;;;2.17;0.60;;;;;;;;;;5116298;28;20102;-88
2023/08/01 07:32:59;;;;;;;1.85;0.70;;;;;;;;;;5099785;28;20508;-89
2023/08/01 07:35:25;;;;;;;3.92;0.80;;;;;;;;;;5119553;28;20051;-88
2023/08/01 07:37:51;;;;;;;1.42;0.82;;;;;;;;;;5118797;28;20059;-89
2023/08/01 07:40:17;;;;;;;2.60;0.82;;;;;;;;;;5116978;28;20051;-89
2023/08/01 07:42:43;;;;;;;1.65;0.65;;;;;;;;;;5116827;28;20473;-90
2023/08/01 07:45:10;;;;;;;3.20;0.93;;;;;;;;;;5116082;28;20048;-89
2023/08/01 07:47:37;;;;;;;1.95;0.73;;;;;;;;;;5116919;28;20043;-88
2023/08/01 07:50:04;;;;;;;1.65;0.60;;;;;;;;;;5115048;28;20043;-89
2023/08/01 07:52:30;;;;;;;1.50;0.50;;;;;;;;;;5117032;28;20051;-88
2023/08/01 07:54:58;;;;;;;2.08;0.57;;;;;;;;;;5116029;28;20047;-89
2023/08/01 07:57:24;;;;;;;2.83;0.50;;;;;;;;;;5115564;28;20043;-89
2023/08/01 07:59:50;;;;;;;2.63;0.47;;;;;;;;;;5114970;28;20047;-88
2023/08/01 08:02:16;;;;;;;1.00;0.40;;;;;;;;;;5116379;28;20062;-89
2023/08/01 08:04:42;;;;;;;5.22;0.52;;;;;;;;;;5116619;28;20078;-88
2023/08/01 08:07:09;;;;;;;1.90;0.55;;;;;;;;;;5116851;28;20048;-88
2023/08/01 08:09:35;;;;;;;2.60;0.50;;;;;;;;;;5117873;28;20110;-89
2023/08/01 08:12:01;;;;;;;1.20;0.40;;;;;;;;;;5116350;28;20040;-87
2023/08/01 08:14:27;;;;;;;1.27;0.65;;;;;;;;;;5114985;28;20474;-89
2023/08/01 08:16:53;;;;;;;2.88;0.50;;;;;;;;;;5098105;28;20096;-87
2023/08/01 08:19:19;;;;;;;2.40;0.50;;;;;;;;;;5114585;28;20035;-85
2023/08/01 08:21:45;;;;;;;1.25;0.50;;;;;;;;;;5114664;28;20473;-86
2023/08/01 08:24:11;;;;;;;3.22;0.50;;;;;;;;;;5097123;28;20043;-81
2023/08/01 08:26:39;;;;;;;1.40;0.40;;;;;;;;;;5096724;28;20473;-80
2023/08/01 08:29:05;;;;;;;1.38;0.40;;;;;;;;;;5113326;28;20477;-81
2023/08/01 08:31:37;;;;;;;1.38;0.40;;;;;;;;;;5114333;28;20062;-81
2023/08/01 08:34:03;;;;;;;1.45;0.40;;;;;;;;;;5114186;28;20122;-80
2023/08/01 08:36:29;;;;;;;2.08;0.50;;;;;;;;;;5114504;28;20051;-81
2023/08/01 08:38:55;;;;;;;2.28;0.55;;;;;;;;;;5114330;28;20058;-81
2023/08/01 08:41:22;;;;;;;1.80;0.60;;;;;;;;;;5114810;28;20039;-81
2023/08/01 08:43:49;;;;;;;0.73;0.40;;;;;;;;;;5114059;28;20450;-81
2023/08/01 08:46:16;;;;;;;2.28;0.73;;;;;;;;;;5113101;28;20059;-82
2023/08/01 08:48:44;;;;;;;2.70;0.77;;;;;;;;;;5113202;28;20056;-81
2023/08/01 08:51:10;;;;;;;2.53;0.90;;;;;;;;;;5113217;28;20051;-82
2023/08/01 08:53:36;;;;;;;1.50;0.95;;;;;;;;;;5113683;28;20044;-82
2023/08/01 08:56:03;;;;;;;2.63;1.05;;;;;;;;;;5096866;28;20048;-83
2023/08/01 08:58:32;;;;;;;2.50;1.50;;;;;;;;;;5114611;28;20485;-83
2023/08/01 09:01:01;;;;;;;4.25;1.20;;;;;;;;;;5114969;28;20048;-85
2023/08/01 09:03:28;;;;;;;5.57;1.20;;;;;;;;;;5114060;28;20108;-85
2023/08/01 09:06:07;;;;;;;3.58;1.45;;;;;;;;;;5113958;28;20465;-84
2023/08/01 09:08:36;;;;;;;2.85;1.20;;;;;;;;;;5114128;28;20380;-83
2023/08/01 09:11:04;;;;;;;4.43;1.20;;;;;;;;;;5115027;28;20048;-83
2023/08/01 09:13:30;;;;;;;5.97;1.40;;;;;;;;;;5114124;28;20435;-83
2023/08/01 09:15:56;;;;;;;4.43;0.88;;;;;;;;;;5097061;28;20075;-82
2023/08/01 09:18:23;;;;;;;5.35;1.30;;;;;;;;;;5115365;28;20067;-81
2023/08/01 09:20:49;;;;;;;2.80;0.63;;;;;;;;;;5114937;28;20039;-84
2023/08/01 09:23:19;;;;;;;5.90;1.08;;;;;;;;;;5115412;28;20047;-85
2023/08/01 09:25:46;;;;;;;5.35;1.05;;;;;;;;;;5116618;28;20131;-84
2023/08/01 09:28:22;;;;;;;4.88;1.20;;;;;;;;;;5116378;28;20130;-81
2023/08/01 09:30:48;;;;;;;5.00;0.60;;;;;;;;;;5113112;28;20055;-82
2023/08/01 09:33:15;;;;;;;5.15;1.20;;;;;;;;;;5117340;28;20141;-81
2023/08/01 09:35:41;;;;;;;5.13;1.40;;;;;;;;;;5117294;28;20044;-83
2023/08/01 09:38:07;;;;;;;5.20;0.90;;;;;;;;;;5116242;28;20051;-81
2023/08/01 09:40:40;;;;;;;4.28;0.82;;;;;;;;;;5116911;28;20057;-82
2023/08/01 09:43:06;;;;;;;5.20;0.95;;;;;;;;;;5116303;28;20050;-82
2023/08/01 09:45:34;;;;;;;4.47;1.00;;;;;;;;;;5116155;28;20036;-81
2023/08/01 09:48:00;;;;;;;3.80;0.70;;;;;;;;;;5117235;28;20047;-82
2023/08/01 09:50:26;;;;;;;2.85;0.80;;;;;;;;;;5117323;28;20047;-82
2023/08/01 09:52:52;;;;;;;1.48;0.85;;;;;;;;;;5119286;28;20105;-81
2023/08/01 09:55:26;;;;;;;3.63;0.70;;;;;;;;;;5117761;28;20050;-81
2023/08/01 09:57:53;;;;;;;4.18;1.52;;;;;;;;;;5118218;28;20058;-81
2023/08/01 10:00:20;;;;;;;4.43;1.13;;;;;;;;;;5118814;28;20407;-82
2023/08/01 10:02:46;;;;;;;6.03;0.75;;;;;;;;;;5116927;28;20534;-82
2023/08/01 10:05:13;;;;;;;0.73;0.10;;;;;;;;;;5117094;28;20064;-85
2023/08/01 10:07:41;;;;;;;1.63;0.15;;;;;;;;;;5118024;28;20055;-86
2023/08/01 10:10:08;;;;;;;0.65;0.10;;;;;;;;;;5117238;28;20052;-85
2023/08/01 10:12:34;;;;;;;1.98;0.10;;;;;;;;;;5117758;28;20139;-84
2023/08/01 10:15:01;;;;;;;0.80;0.10;;;;;;;;;;5117377;28;20051;-86
2023/08/01 10:17:28;;;;;;;0.77;0.25;;;;;;;;;;5118365;28;20040;-86
2023/08/01 10:19:57;;;;;;;0.50;0.32;;;;;;;;;;5118872;28;20044;-87
2023/08/01 10:22:24;;;;;;;1.75;0.20;;;;;;;;;;5118374;28;20096;-86
2023/08/01 10:24:50;;;;;;;0.40;0.20;;;;;;;;;;5116819;28;20105;-86
2023/08/01 10:27:21;;;;;;;1.65;0.40;;;;;;;;;;5100009;28;20370;-86
2023/08/01 10:30:00;;;;;;;1.60;0.40;;;;;;;;;;5117454;28;20495;-84
2023/08/01 10:32:36;;;;;;;0.75;0.20;;;;;;;;;;5118001;28;20054;-86
2023/08/01 10:35:03;;;;;;;2.97;0.10;;;;;;;;;;5117135;28;20105;-86
2023/08/01 10:37:48;;;;;;;0.50;0.10;;;;;;;;;;5100551;28;20059;-88
2023/08/01 10:40:14;;;;;;;0.20;0.10;;;;;;;;;;5117559;28;20047;-87
2023/08/01 10:42:41;;;;;;;0.68;0.20;;;;;;;;;;5120620;28;20051;-87
2023/08/01 10:45:08;;;;;;;1.95;0.20;;;;;;;;;;5121667;28;20549;-90
2023/08/01 10:47:34;;;;;;;1.85;0.20;;;;;;;;;;5126981;28;20059;-89
2023/08/01 10:50:00;;;;;;;0.75;0.20;;;;;;;;;;5124850;28;20055;-89
2023/08/01 10:52:27;;;;;;;1.05;0.30;;;;;;;;;;5119694;28;20530;-88
2023/08/01 10:55:00;;;;;;;1.42;0.22;;;;;;;;;;5118346;28;20101;-89
2023/08/01 10:57:31;;;;;;;1.45;0.35;;;;;;;;;;5100750;28;20097;-89
2023/08/01 10:59:58;;;;;;;3.58;0.55;;;;;;;;;;5117736;28;20079;-88
2023/08/01 11:02:26;;;;;;;2.33;0.40;;;;;;;;;;5119591;28;20075;-89
2023/08/01 11:05:18;;;;;;;1.25;0.20;;;;;;;;;;5118463;28;20112;-89
2023/08/01 11:07:54;;;;;;;2.60;0.30;;;;;;;;;;5115361;28;20044;-89
2023/08/01 11:10:20;;;;;;;1.50;0.50;;;;;;;;;;5117044;28;20435;-87
2023/08/01 11:12:46;;;;;;;2.30;0.55;;;;;;;;;;5082548;28;20098;-89
2023/08/01 11:15:13;;;;;;;5.93;0.70;;;;;;;;;;5098407;28;20080;-88
2023/08/01 11:17:39;;;;;;;3.42;0.40;;;;;;;;;;5099713;28;20044;-87
2023/08/01 11:20:07;;;;;;;2.50;0.40;;;;;;;;;;5102932;28;20046;-88
2023/08/01 11:22:33;;;;;;;0.85;0.20;;;;;;;;;;5115794;28;20481;-84
2023/08/01 11:24:59;;;;;;;1.23;0.17;;;;;;;;;;5117257;28;20228;-85
2023/08/01 11:27:26;;;;;;;0.50;0.10;;;;;;;;;;5116025;28;20054;-87
2023/08/01 11:29:53;;;;;;;2.83;0.10;;;;;;;;;;5115344;28;20505;-88
2023/08/01 11:32:23;;;;;;;1.95;0.13;;;;;;;;;;5115668;28;20045;-89
2023/08/01 11:34:49;;;;;;;0.57;0.10;;;;;;;;;;5116451;28;20130;-88
2023/08/01 11:37:16;;;;;;;2.55;0.50;;;;;;;;;;5115267;28;20073;-88
2023/08/01 11:39:42;;;;;;;2.25;0.35;;;;;;;;;;5116065;28;20040;-88
2023/08/01 11:42:14;;;;;;;2.78;0.50;;;;;;;;;;5115155;28;20044;-88
2023/08/01 11:44:40;;;;;;;0.82;0.28;;;;;;;;;;5115592;28;20094;-88
2023/08/01 11:47:10;;;;;;;1.92;0.20;;;;;;;;;;5115189;28;20092;-88
2023/08/01 11:49:37;;;;;;;2.85;0.20;;;;;;;;;;5115778;28;20473;-88
2023/08/01 11:52:03;;;;;;;1.42;0.28;;;;;;;;;;5116715;28;20055;-88
2023/08/01 11:54:29;;;;;;;1.42;0.30;;;;;;;;;;5097712;28;20051;-88
2023/08/01 11:57:01;;;;;;;0.88;0.13;;;;;;;;;;5115171;28;20093;-88
2023/08/01 11:59:27;;;;;;;4.07;0.45;;;;;;;;;;5115379;28;20039;-87
2023/08/01 12:01:53;;;;;;;2.50;0.30;;;;;;;;;;5114744;28;20047;-87
2023/08/01 12:04:26;;;;;;;1.90;0.40;;;;;;;;;;5097513;28;20048;-87
2023/08/01 12:06:52;;;;;;;1.58;0.20;;;;;;;;;;5099037;28;20047;-86
2023/08/01 12:09:20;;;;;;;3.55;0.60;;;;;;;;;;5116679;28;20148;-86
2023/08/01 12:11:46;;;;;;;2.15;0.30;;;;;;;;;;5115641;28;20058;-85
2023/08/01 12:14:15;;;;;;;2.80;0.30;;;;;;;;;;5097828;28;20055;-86
2023/08/01 12:16:44;;;;;;;2.75;0.40;;;;;;;;;;5115768;28;20051;-86
2023/08/01 12:19:11;;;;;;;3.78;0.65;;;;;;;;;;5114885;28;20044;-87
2023/08/01 12:21:37;;;;;;;2.67;0.40;;;;;;;;;;5115449;28;20048;-87
2023/08/01 12:24:03;;;;;;;4.88;0.40;;;;;;;;;;5115854;28;20096;-87
2023/08/01 12:26:29;;;;;;;3.03;0.40;;;;;;;;;;5114301;28;20048;-87
2023/08/01 12:28:56;;;;;;;2.70;0.30;;;;;;;;;;5115239;28;20055;-87
2023/08/01 12:31:22;;;;;;;4.43;0.77;;;;;;;;;;5114597;28;20055;-87
2023/08/01 12:33:49;;;;;;;2.83;0.52;;;;;;;;;;5098305;28;20052;-87
2023/08/01 12:36:15;;;;;;;5.30;0.70;;;;;;;;;;5096748;28;20071;-88
2023/08/01 12:38:43;;;;;;;3.65;0.47;;;;;;;;;;5114893;28;20050;-88
2023/08/01 12:41:09;;;;;;;4.90;0.73;;;;;;;;;;5097337;28;20054;-88
2023/08/01 12:43:35;;;;;;;3.40;0.77;;;;;;;;;;5097322;28;20125;-88
2023/08/01 12:46:01;;;;;;;4.50;0.80;;;;;;;;;;5114536;28;20089;-88
2023/08/01 12:48:27;;;;;;;2.65;0.50;;;;;;;;;;5114761;28;20112;-87
2023/08/01 12:50:54;;;;;;;3.33;0.40;;;;;;;;;;5114475;28;20040;-86
2023/08/01 12:53:21;;;;;;;5.85;0.75;;;;;;;;;;5114213;28;20105;-87
2023/08/01 12:55:48;;;;;;;3.38;0.65;;;;;;;;;;5113839;28;20086;-87
2023/08/01 12:58:14;;;;;;;4.00;0.68;;;;;;;;;;5097589;28;20074;-87
2023/08/01 13:00:41;;;;;;;2.58;0.70;;;;;;;;;;5113921;28;20095;-87
2023/08/01 13:03:07;;;;;;;4.63;0.60;;;;;;;;;;5113897;28;20393;-88
2023/08/01 13:05:40;;;;;;;3.30;0.55;;;;;;;;;;5114169;28;20478;-88
2023/08/01 13:08:06;;;;;;;3.78;0.40;;;;;;;;;;5119694;28;20045;-88
2023/08/01 13:10:33;;;;;;;3.65;0.20;;;;;;;;;;5118133;28;20051;-87
2023/08/01 13:13:00;;;;;;;2.58;0.20;;;;;;;;;;5119981;28;20047;-87
2023/08/01 13:15:26;;;;;;;1.17;0.20;;;;;;;;;;5118245;28;20108;-87
2023/08/01 13:17:52;;;;;;;3.55;0.50;;;;;;;;;;5117757;28;20047;-86
2023/08/01 13:20:19;;;;;;;2.97;0.25;;;;;;;;;;5101584;28;20065;-86
2023/08/01 13:22:49;;;;;;;0.95;0.20;;;;;;;;;;5101153;28;20529;-87
2023/08/01 13:25:16;;;;;;;2.13;0.30;;;;;;;;;;5100850;28;20047;-87
2023/08/01 13:27:42;;;;;;;4.03;0.20;;;;;;;;;;5117746;28;20043;-87
2023/08/01 13:30:08;;;;;;;4.10;0.20;;;;;;;;;;5100855;28;20052;-87
2023/08/01 13:32:35;;;;;;;1.27;0.22;;;;;;;;;;5117283;28;20143;-86
2023/08/01 13:35:01;;;;;;;1.85;0.40;;;;;;;;;;5117725;28;20036;-86
2023/08/01 13:37:29;;;;;;;3.30;0.40;;;;;;;;;;5117334;28;20104;-86
2023/08/01 13:39:55;;;;;;;2.90;0.57;;;;;;;;;;5100271;28;20050;-88
2023/08/01 13:42:21;;;;;;;3.00;0.30;;;;;;;;;;5117451;28;20048;-87
2023/08/01 13:44:48;;;;;;;1.45;0.30;;;;;;;;;;5101317;28;20047;-84
2023/08/01 13:47:14;;;;;;;3.40;0.35;;;;;;;;;;5100564;28;20039;-85
2023/08/01 13:49:40;;;;;;;1.25;0.20;;;;;;;;;;5083469;28;20051;-85
2023/08/01 13:52:06;;;;;;;3.33;0.40;;;;;;;;;;5117353;28;20474;-85
2023/08/01 13:54:32;;;;;;;2.47;0.40;;;;;;;;;;5100744;28;20058;-85
2023/08/01 13:56:58;;;;;;;3.10;0.30;;;;;;;;;;5118229;28;20083;-84
2023/08/01 13:59:25;;;;;;;3.90;0.63;;;;;;;;;;5116723;28;20505;-84
2023/08/01 14:01:51;;;;;;;2.72;0.30;;;;;;;;;;5099291;28;20071;-85
2023/08/01 14:04:17;;;;;;;2.42;0.40;;;;;;;;;;5100412;28;20558;-85
2023/08/01 14:06:43;;;;;;;1.67;0.32;;;;;;;;;;5117063;28;20036;-83
2023/08/01 14:09:09;;;;;;;1.55;0.20;;;;;;;;;;5117133;28;20389;-87
2023/08/01 14:11:36;;;;;;;1.52;0.30;;;;;;;;;;5100188;28;20051;-90
2023/08/01 14:14:02;;;;;;;1.60;0.20;;;;;;;;;;5100734;28;20488;-84
2023/08/01 14:16:29;;;;;;;2.55;0.20;;;;;;;;;;5100383;28;20079;-83
2023/08/01 14:18:55;;;;;;;4.70;0.30;;;;;;;;;;5118147;28;20043;-81
2023/08/01 14:21:21;;;;;;;0.35;0.10;;;;;;;;;;5117681;28;20054;-85
2023/08/01 14:23:47;;;;;;;1.30;0.20;;;;;;;;;;5116540;28;20396;-83
2023/08/01 14:26:13;;;;;;;0.55;0.10;;;;;;;;;;5100082;28;20051;-87
2023/08/01 14:28:39;;;;;;;1.80;0.25;;;;;;;;;;5118202;28;20051;-87
2023/08/01 14:31:07;;;;;;;1.20;0.10;;;;;;;;;;5117912;28;20047;-88
2023/08/01 14:33:33;;;;;;;1.50;0.17;;;;;;;;;;5117358;28;20100;-88
2023/08/01 14:35:59;;;;;;;2.60;0.15;;;;;;;;;;5100126;28;20054;-88
2023/08/01 14:38:26;;;;;;;1.02;0.15;;;;;;;;;;5117633;28;20054;-88
2023/08/01 14:40:55;;;;;;;1.05;0.20;;;;;;;;;;5083000;28;20049;-87